createdAt,value
2023-02-28T00:00:32.414Z,1025.73413852
2023-02-28T00:01:32.740Z,1025.530955792
2023-02-28T00:02:32.417Z,1025.4293644279999
2023-02-28T00:03:32.476Z,1025.6325471559999
2023-02-28T00:04:32.419Z,1025.4293644279999
2023-02-28T00:05:32.347Z,1025.6325471559999
2023-02-28T00:06:32.394Z,1025.530955792
2023-02-28T00:07:32.473Z,1025.6325471559999
2023-02-28T00:08:44.344Z,1025.530955792
2023-02-28T00:09:48.307Z,1025.327773064
2023-02-28T00:10:52.311Z,1025.530955792
2023-02-28T00:11:56.374Z,1025.73413852
2023-02-28T00:13:00.308Z,1025.73413852
2023-02-28T00:14:04.331Z,1025.530955792
2023-02-28T00:15:08.327Z,1025.530955792
2023-02-28T00:16:12.355Z,1025.6325471559999
2023-02-28T00:17:16.302Z,1025.6325471559999
2023-02-28T00:18:20.332Z,1025.6325471559999
2023-02-28T00:19:24.280Z,1025.530955792
2023-02-28T00:20:28.302Z,1025.835729884
2023-02-28T00:21:31.693Z,1025.835729884
2023-02-28T00:22:31.402Z,1025.530955792
2023-02-28T00:23:31.418Z,1025.73413852
2023-02-28T00:24:31.415Z,1025.6325471559999
2023-02-28T00:25:31.432Z,1025.6325471559999
2023-02-28T00:26:31.421Z,1025.6325471559999
2023-02-28T00:27:31.430Z,1025.530955792
2023-02-28T00:28:31.383Z,1025.6325471559999
2023-02-28T00:29:32.058Z,1025.6325471559999
2023-02-28T00:30:31.460Z,1025.835729884
2023-02-28T00:31:31.482Z,1025.73413852
2023-02-28T00:32:31.444Z,1025.6325471559999
2023-02-28T00:33:31.435Z,1025.835729884
2023-02-28T00:34:31.381Z,1025.6325471559999
2023-02-28T00:35:31.466Z,1025.73413852
2023-02-28T00:36:31.417Z,1025.937321248
2023-02-28T00:37:31.426Z,1025.835729884
2023-02-28T00:38:31.417Z,1025.6325471559999
2023-02-28T00:39:31.386Z,1025.530955792
2023-02-28T00:40:31.403Z,1025.530955792
2023-02-28T00:41:31.430Z,1025.835729884
2023-02-28T00:42:31.402Z,1025.73413852
2023-02-28T00:43:31.414Z,1025.6325471559999
2023-02-28T00:44:31.389Z,1025.530955792
2023-02-28T00:45:31.410Z,1025.6325471559999
2023-02-28T00:46:31.452Z,1025.530955792
2023-02-28T00:47:31.426Z,1025.530955792
2023-02-28T00:48:31.398Z,1025.530955792
2023-02-28T00:49:32.527Z,1025.530955792
2023-02-28T00:50:31.394Z,1025.530955792
2023-02-28T00:51:31.449Z,1025.530955792
2023-02-28T00:52:31.409Z,1025.530955792
2023-02-28T00:53:31.400Z,1025.6325471559999
2023-02-28T00:54:31.513Z,1025.4293644279999
2023-02-28T00:55:31.406Z,1025.530955792
2023-02-28T00:56:31.386Z,1025.73413852
2023-02-28T00:57:31.543Z,1025.327773064
2023-02-28T00:58:31.446Z,1025.530955792
2023-02-28T00:59:32.220Z,1025.530955792
2023-02-28T01:00:31.392Z,1025.73413852
2023-02-28T01:01:31.933Z,1025.530955792
2023-02-28T01:02:31.419Z,1025.530955792
2023-02-28T01:03:31.404Z,1025.530955792
2023-02-28T01:04:31.477Z,1025.530955792
2023-02-28T01:05:31.425Z,1025.6325471559999
2023-02-28T01:06:31.398Z,1025.73413852
2023-02-28T01:07:31.388Z,1025.4293644279999
2023-02-28T01:08:31.400Z,1025.6325471559999
2023-02-28T01:09:31.427Z,1025.4293644279999
2023-02-28T01:10:31.466Z,1025.6325471559999
2023-02-28T01:11:31.427Z,1025.530955792
2023-02-28T01:12:31.399Z,1025.327773064
2023-02-28T01:13:31.422Z,1025.4293644279999
2023-02-28T01:14:31.456Z,1025.530955792
2023-02-28T01:15:31.428Z,1025.530955792
2023-02-28T01:16:31.383Z,1025.327773064
2023-02-28T01:17:31.456Z,1025.2261816999999
2023-02-28T01:18:31.385Z,1025.530955792
2023-02-28T01:19:31.662Z,1025.73413852
2023-02-28T01:20:31.418Z,1025.4293644279999
2023-02-28T01:21:31.637Z,1025.73413852
2023-02-28T01:22:31.415Z,1025.4293644279999
2023-02-28T01:23:31.431Z,1025.4293644279999
2023-02-28T01:24:32.077Z,1025.73413852
2023-02-28T01:25:31.508Z,1025.4293644279999
2023-02-28T01:26:31.443Z,1025.327773064
2023-02-28T01:27:31.370Z,1025.4293644279999
2023-02-28T01:28:31.420Z,1025.4293644279999
2023-02-28T01:29:31.398Z,1025.530955792
2023-02-28T01:30:31.470Z,1025.6325471559999
2023-02-28T01:31:31.833Z,1025.530955792
2023-02-28T01:32:31.389Z,1025.530955792
2023-02-28T01:33:31.463Z,1025.6325471559999
2023-02-28T01:34:31.401Z,1025.4293644279999
2023-02-28T01:35:31.444Z,1025.4293644279999
2023-02-28T01:36:31.421Z,1025.4293644279999
2023-02-28T01:37:31.376Z,1025.327773064
2023-02-28T01:38:31.404Z,1025.327773064
2023-02-28T01:39:32.814Z,1025.530955792
2023-02-28T01:40:31.587Z,1025.530955792
2023-02-28T01:41:31.936Z,1025.530955792
2023-02-28T01:42:31.608Z,1025.4293644279999
2023-02-28T01:43:31.527Z,1025.530955792
2023-02-28T01:44:31.490Z,1025.4293644279999
2023-02-28T01:45:31.584Z,1025.530955792
2023-02-28T01:46:31.669Z,1025.530955792
2023-02-28T01:47:31.581Z,1025.73413852
2023-02-28T01:48:31.504Z,1025.6325471559999
2023-02-28T01:49:31.609Z,1025.530955792
2023-02-28T01:50:31.536Z,1025.73413852
2023-02-28T01:51:31.652Z,1025.530955792
2023-02-28T01:52:31.580Z,1025.73413852
2023-02-28T01:53:31.526Z,1025.530955792
2023-02-28T01:54:31.493Z,1025.530955792
2023-02-28T01:55:31.498Z,1025.4293644279999
2023-02-28T01:56:31.503Z,1025.530955792
2023-02-28T01:57:31.400Z,1025.73413852
2023-02-28T01:58:31.410Z,1025.4293644279999
2023-02-28T01:59:32.376Z,1025.73413852
2023-02-28T02:00:31.419Z,1025.530955792
2023-02-28T02:01:31.700Z,1025.530955792
2023-02-28T02:02:31.466Z,1025.4293644279999
2023-02-28T02:03:31.386Z,1025.327773064
2023-02-28T02:04:31.520Z,1025.6325471559999
2023-02-28T02:05:31.407Z,1025.6325471559999
2023-02-28T02:06:31.389Z,1025.6325471559999
2023-02-28T02:07:31.386Z,1025.6325471559999
2023-02-28T02:08:31.420Z,1025.530955792
2023-02-28T02:09:31.373Z,1025.530955792
2023-02-28T02:10:31.412Z,1025.4293644279999
2023-02-28T02:11:31.772Z,1025.327773064
2023-02-28T02:12:31.414Z,1025.4293644279999
2023-02-28T02:13:31.428Z,1025.4293644279999
2023-02-28T02:14:31.400Z,1025.530955792
2023-02-28T02:15:31.369Z,1025.327773064
2023-02-28T02:16:31.412Z,1025.530955792
2023-02-28T02:17:31.392Z,1025.327773064
2023-02-28T02:18:31.412Z,1025.4293644279999
2023-02-28T02:19:32.518Z,1025.327773064
2023-02-28T02:20:31.396Z,1025.327773064
2023-02-28T02:21:31.762Z,1025.327773064
2023-02-28T02:22:31.373Z,1025.4293644279999
2023-02-28T02:23:31.407Z,1025.4293644279999
2023-02-28T02:24:31.421Z,1025.4293644279999
2023-02-28T02:25:31.410Z,1025.2261816999999
2023-02-28T02:26:31.374Z,1025.2261816999999
2023-02-28T02:27:31.455Z,1025.73413852
2023-02-28T02:28:31.404Z,1025.6325471559999
2023-02-28T02:29:31.376Z,1025.835729884
2023-02-28T02:30:31.398Z,1025.530955792
2023-02-28T02:31:31.805Z,1025.530955792
2023-02-28T02:32:31.504Z,1025.2261816999999
2023-02-28T02:33:31.369Z,1025.327773064
2023-02-28T02:34:31.377Z,1025.4293644279999
2023-02-28T02:35:31.443Z,1025.530955792
2023-02-28T02:36:31.413Z,1025.4293644279999
2023-02-28T02:37:31.400Z,1025.6325471559999
2023-02-28T02:38:31.380Z,1025.530955792
2023-02-28T02:39:31.388Z,1025.4293644279999
2023-02-28T02:40:31.382Z,1025.4293644279999
2023-02-28T02:41:31.555Z,1025.530955792
2023-02-28T02:42:31.428Z,1025.4293644279999
2023-02-28T02:43:31.394Z,1025.4293644279999
2023-02-28T02:44:31.398Z,1025.327773064
2023-02-28T02:45:31.368Z,1025.327773064
2023-02-28T02:46:31.416Z,1025.6325471559999
2023-02-28T02:47:31.457Z,1025.530955792
2023-02-28T02:48:31.418Z,1025.2261816999999
2023-02-28T02:49:31.358Z,1025.6325471559999
2023-02-28T02:50:31.401Z,1025.530955792
2023-02-28T02:51:31.641Z,1025.4293644279999
2023-02-28T02:52:31.387Z,1025.327773064
2023-02-28T02:53:31.370Z,1025.327773064
2023-02-28T02:54:31.361Z,1025.2261816999999
2023-02-28T02:55:31.512Z,1025.530955792
2023-02-28T02:56:31.382Z,1025.4293644279999
2023-02-28T02:57:31.613Z,1025.2261816999999
2023-02-28T02:58:31.388Z,1025.327773064
2023-02-28T02:59:31.390Z,1025.4293644279999
2023-02-28T03:00:31.391Z,1025.4293644279999
2023-02-28T03:01:31.642Z,1025.530955792
2023-02-28T03:02:31.391Z,1025.4293644279999
2023-02-28T03:03:31.426Z,1025.530955792
2023-02-28T03:04:31.420Z,1025.530955792
2023-02-28T03:05:31.386Z,1025.530955792
2023-02-28T03:06:31.378Z,1025.4293644279999
2023-02-28T03:07:31.403Z,1025.4293644279999
2023-02-28T03:08:31.375Z,1025.327773064
2023-02-28T03:09:32.123Z,1025.327773064
2023-02-28T03:10:31.459Z,1025.6325471559999
2023-02-28T03:11:31.741Z,1025.4293644279999
2023-02-28T03:12:31.559Z,1025.327773064
2023-02-28T03:13:31.553Z,1025.73413852
2023-02-28T03:14:31.387Z,1025.530955792
2023-02-28T03:15:31.442Z,1025.530955792
2023-02-28T03:16:31.488Z,1025.4293644279999
2023-02-28T03:17:31.380Z,1025.4293644279999
2023-02-28T03:18:31.399Z,1025.124590336
2023-02-28T03:19:32.656Z,1025.6325471559999
2023-02-28T03:20:31.490Z,1025.2261816999999
2023-02-28T03:21:31.544Z,1025.124590336
2023-02-28T03:22:31.379Z,1025.2261816999999
2023-02-28T03:23:31.362Z,1025.124590336
2023-02-28T03:24:31.460Z,1025.327773064
2023-02-28T03:25:31.381Z,1025.4293644279999
2023-02-28T03:26:31.551Z,1025.327773064
2023-02-28T03:27:31.381Z,1025.327773064
2023-02-28T03:28:31.447Z,1025.4293644279999
2023-02-28T03:29:33.922Z,1025.2261816999999
2023-02-28T03:30:31.547Z,1025.530955792
2023-02-28T03:31:32.162Z,1025.327773064
2023-02-28T03:32:31.422Z,1025.327773064
2023-02-28T03:33:31.478Z,1025.4293644279999
2023-02-28T03:34:31.582Z,1025.4293644279999
2023-02-28T03:35:31.413Z,1025.4293644279999
2023-02-28T03:36:31.496Z,1025.4293644279999
2023-02-28T03:37:31.496Z,1025.327773064
2023-02-28T03:38:31.485Z,1025.2261816999999
2023-02-28T03:39:31.472Z,1025.4293644279999
2023-02-28T03:40:31.466Z,1025.4293644279999
2023-02-28T03:41:31.768Z,1025.327773064
2023-02-28T03:42:31.477Z,1025.327773064
2023-02-28T03:43:31.396Z,1025.327773064
2023-02-28T03:44:31.466Z,1025.4293644279999
2023-02-28T03:45:31.561Z,1025.4293644279999
2023-02-28T03:46:31.536Z,1025.4293644279999
2023-02-28T03:47:31.475Z,1025.530955792
2023-02-28T03:48:31.501Z,1025.4293644279999
2023-02-28T03:49:31.371Z,1025.530955792
2023-02-28T03:50:31.531Z,1025.530955792
2023-02-28T03:51:31.490Z,1025.124590336
2023-02-28T03:52:31.443Z,1025.327773064
2023-02-28T03:53:31.399Z,1025.4293644279999
2023-02-28T03:54:31.382Z,1025.2261816999999
2023-02-28T03:55:31.369Z,1025.327773064
2023-02-28T03:56:31.375Z,1025.327773064
2023-02-28T03:57:31.429Z,1025.327773064
2023-02-28T03:58:31.427Z,1025.327773064
2023-02-28T03:59:32.006Z,1025.4293644279999
2023-02-28T04:00:31.377Z,1025.327773064
2023-02-28T04:01:31.780Z,1025.4293644279999
2023-02-28T04:02:31.385Z,1025.2261816999999
2023-02-28T04:03:31.398Z,1025.2261816999999
2023-02-28T04:04:31.434Z,1025.327773064
2023-02-28T04:05:31.416Z,1025.2261816999999
2023-02-28T04:06:31.404Z,1025.2261816999999
2023-02-28T04:07:31.368Z,1025.327773064
2023-02-28T04:08:31.386Z,1025.124590336
2023-02-28T04:09:31.432Z,1025.327773064
2023-02-28T04:10:31.392Z,1025.124590336
2023-02-28T04:11:31.613Z,1025.327773064
2023-02-28T04:12:31.415Z,1025.2261816999999
2023-02-28T04:13:31.374Z,1025.124590336
2023-02-28T04:14:31.388Z,1025.327773064
2023-02-28T04:15:31.364Z,1025.2261816999999
2023-02-28T04:16:35.416Z,1025.2261816999999
2023-02-28T04:17:31.409Z,1025.0229989719999
2023-02-28T04:18:31.403Z,1025.327773064
2023-02-28T04:19:31.350Z,1024.9214076079998
2023-02-28T04:20:31.360Z,1025.124590336
2023-02-28T04:21:31.888Z,1025.2261816999999
2023-02-28T04:22:31.390Z,1025.0229989719999
2023-02-28T04:23:31.379Z,1025.327773064
2023-02-28T04:24:31.399Z,1025.124590336
2023-02-28T04:25:31.390Z,1025.2261816999999
2023-02-28T04:26:31.386Z,1025.327773064
2023-02-28T04:27:32.786Z,1025.124590336
2023-02-28T04:28:31.379Z,1025.327773064
2023-02-28T04:29:31.416Z,1025.4293644279999
2023-02-28T04:30:31.442Z,1025.2261816999999
2023-02-28T04:31:31.689Z,1025.4293644279999
2023-02-28T04:32:31.428Z,1025.2261816999999
2023-02-28T04:33:31.372Z,1025.4293644279999
2023-02-28T04:34:31.395Z,1025.2261816999999
2023-02-28T04:35:31.424Z,1025.2261816999999
2023-02-28T04:36:31.376Z,1025.2261816999999
2023-02-28T04:37:31.423Z,1025.124590336
2023-02-28T04:38:31.403Z,1025.124590336
2023-02-28T04:39:32.637Z,1025.0229989719999
2023-02-28T04:40:31.373Z,1025.2261816999999
2023-02-28T04:41:32.825Z,1025.2261816999999
2023-02-28T04:42:31.447Z,1024.9214076079998
2023-02-28T04:43:31.362Z,1025.124590336
2023-02-28T04:44:31.403Z,1025.124590336
2023-02-28T04:45:31.575Z,1025.124590336
2023-02-28T04:46:31.382Z,1025.0229989719999
2023-02-28T04:47:31.386Z,1025.124590336
2023-02-28T04:48:31.384Z,1025.2261816999999
2023-02-28T04:49:31.836Z,1025.0229989719999
2023-02-28T04:50:31.386Z,1025.0229989719999
2023-02-28T04:51:31.693Z,1025.2261816999999
2023-02-28T04:52:31.391Z,1025.124590336
2023-02-28T04:53:31.407Z,1025.124590336
2023-02-28T04:54:31.371Z,1025.4293644279999
2023-02-28T04:55:31.366Z,1025.124590336
2023-02-28T04:56:31.417Z,1025.2261816999999
2023-02-28T04:57:31.389Z,1025.124590336
2023-02-28T04:58:31.398Z,1025.0229989719999
2023-02-28T04:59:31.384Z,1025.2261816999999
2023-02-28T05:00:31.356Z,1025.2261816999999
2023-02-28T05:01:31.818Z,1025.327773064
2023-02-28T05:02:31.422Z,1025.2261816999999
2023-02-28T05:03:31.379Z,1025.327773064
2023-02-28T05:04:31.422Z,1025.124590336
2023-02-28T05:05:31.384Z,1025.4293644279999
2023-02-28T05:06:31.384Z,1025.124590336
2023-02-28T05:07:31.373Z,1025.4293644279999
2023-02-28T05:08:31.386Z,1025.530955792
2023-02-28T05:09:32.769Z,1025.530955792
2023-02-28T05:10:31.416Z,1025.2261816999999
2023-02-28T05:11:31.822Z,1025.6325471559999
2023-02-28T05:12:31.361Z,1025.4293644279999
2023-02-28T05:13:31.504Z,1025.530955792
2023-02-28T05:14:31.366Z,1025.4293644279999
2023-02-28T05:15:31.418Z,1025.4293644279999
2023-02-28T05:16:31.449Z,1025.4293644279999
2023-02-28T05:17:31.432Z,1025.327773064
2023-02-28T05:18:31.408Z,1025.530955792
2023-02-28T05:19:31.378Z,1025.530955792
2023-02-28T05:20:31.375Z,1025.4293644279999
2023-02-28T05:21:31.695Z,1025.4293644279999
2023-02-28T05:22:31.390Z,1025.327773064
2023-02-28T05:23:31.372Z,1025.2261816999999
2023-02-28T05:24:31.349Z,1025.530955792
2023-02-28T05:25:31.438Z,1025.6325471559999
2023-02-28T05:26:31.356Z,1025.4293644279999
2023-02-28T05:27:31.346Z,1025.530955792
2023-02-28T05:28:31.366Z,1025.4293644279999
2023-02-28T05:29:32.524Z,1025.2261816999999
2023-02-28T05:30:31.428Z,1025.327773064
2023-02-28T05:31:31.748Z,1025.530955792
2023-02-28T05:32:31.407Z,1025.4293644279999
2023-02-28T05:33:31.374Z,1025.2261816999999
2023-02-28T05:34:31.362Z,1025.4293644279999
2023-02-28T05:35:31.389Z,1025.4293644279999
2023-02-28T05:36:31.399Z,1025.530955792
2023-02-28T05:37:31.388Z,1025.6325471559999
2023-02-28T05:38:31.381Z,1025.2261816999999
2023-02-28T05:39:31.910Z,1025.6325471559999
2023-02-28T05:40:31.368Z,1025.530955792
2023-02-28T05:41:31.811Z,1025.2261816999999
2023-02-28T05:42:31.498Z,1025.6325471559999
2023-02-28T05:43:31.358Z,1025.530955792
2023-02-28T05:44:31.358Z,1025.530955792
2023-02-28T05:45:31.457Z,1025.2261816999999
2023-02-28T05:46:31.368Z,1025.530955792
2023-02-28T05:47:31.382Z,1025.327773064
2023-02-28T05:48:31.385Z,1025.2261816999999
2023-02-28T05:49:31.392Z,1025.327773064
2023-02-28T05:50:31.377Z,1025.530955792
2023-02-28T05:51:31.723Z,1025.2261816999999
2023-02-28T05:52:31.372Z,1025.530955792
2023-02-28T05:53:31.378Z,1025.4293644279999
2023-02-28T05:54:31.410Z,1025.530955792
2023-02-28T05:55:31.383Z,1025.327773064
2023-02-28T05:56:31.366Z,1025.4293644279999
2023-02-28T05:57:31.371Z,1025.327773064
2023-02-28T05:58:31.410Z,1025.530955792
2023-02-28T05:59:32.014Z,1025.4293644279999
2023-02-28T06:00:31.372Z,1025.530955792
2023-02-28T06:01:31.549Z,1025.530955792
2023-02-28T06:02:31.449Z,1025.4293644279999
2023-02-28T06:03:31.474Z,1025.327773064
2023-02-28T06:04:32.318Z,1025.530955792
2023-02-28T06:05:31.384Z,1025.73413852
2023-02-28T06:06:31.368Z,1025.835729884
2023-02-28T06:07:31.403Z,1025.6325471559999
2023-02-28T06:08:31.385Z,1025.530955792
2023-02-28T06:09:32.757Z,1025.73413852
2023-02-28T06:10:31.370Z,1025.4293644279999
2023-02-28T06:11:31.673Z,1025.327773064
2023-02-28T06:12:31.371Z,1025.73413852
2023-02-28T06:13:31.409Z,1025.73413852
2023-02-28T06:14:31.409Z,1025.530955792
2023-02-28T06:15:31.370Z,1025.6325471559999
2023-02-28T06:16:31.433Z,1025.530955792
2023-02-28T06:17:31.446Z,1025.6325471559999
2023-02-28T06:18:31.380Z,1025.530955792
2023-02-28T06:19:31.365Z,1025.530955792
2023-02-28T06:20:31.405Z,1025.73413852
2023-02-28T06:21:31.716Z,1025.6325471559999
2023-02-28T06:22:31.398Z,1025.530955792
2023-02-28T06:23:31.345Z,1025.835729884
2023-02-28T06:24:31.400Z,1025.530955792
2023-02-28T06:25:31.405Z,1025.73413852
2023-02-28T06:26:31.395Z,1025.73413852
2023-02-28T06:27:31.336Z,1025.937321248
2023-02-28T06:28:31.521Z,1025.835729884
2023-02-28T06:29:31.385Z,1025.73413852
2023-02-28T06:30:31.378Z,1025.6325471559999
2023-02-28T06:31:31.924Z,1025.73413852
2023-02-28T06:32:31.410Z,1025.835729884
2023-02-28T06:33:31.438Z,1025.73413852
2023-02-28T06:34:31.776Z,1025.835729884
2023-02-28T06:35:31.389Z,1025.73413852
2023-02-28T06:36:31.451Z,1025.73413852
2023-02-28T06:37:31.361Z,1025.73413852
2023-02-28T06:38:31.385Z,1025.73413852
2023-02-28T06:39:33.165Z,1025.6325471559999
2023-02-28T06:40:31.369Z,1025.937321248
2023-02-28T06:41:38.466Z,1025.73413852
2023-02-28T06:42:31.484Z,1025.835729884
2023-02-28T06:43:31.422Z,1025.937321248
2023-02-28T06:44:31.371Z,1025.937321248
2023-02-28T06:45:31.366Z,1025.73413852
2023-02-28T06:46:31.445Z,1025.73413852
2023-02-28T06:47:31.365Z,1025.835729884
2023-02-28T06:48:31.425Z,1025.937321248
2023-02-28T06:49:31.421Z,1025.835729884
2023-02-28T06:50:31.413Z,1025.73413852
2023-02-28T06:51:31.756Z,1026.0389126119999
2023-02-28T06:52:31.426Z,1026.0389126119999
2023-02-28T06:53:31.410Z,1025.937321248
2023-02-28T06:54:31.373Z,1025.6325471559999
2023-02-28T06:55:31.370Z,1025.73413852
2023-02-28T06:56:31.380Z,1025.73413852
2023-02-28T06:57:31.356Z,1025.73413852
2023-02-28T06:58:31.383Z,1025.73413852
2023-02-28T06:59:31.351Z,1025.835729884
2023-02-28T07:00:31.386Z,1025.835729884
2023-02-28T07:01:31.865Z,1025.835729884
2023-02-28T07:02:31.587Z,1025.6325471559999
2023-02-28T07:03:34.235Z,1025.6325471559999
2023-02-28T07:04:31.519Z,1025.835729884
2023-02-28T07:05:31.382Z,1025.937321248
2023-02-28T07:06:31.390Z,1026.0389126119999
2023-02-28T07:07:31.361Z,1025.835729884
2023-02-28T07:08:31.371Z,1025.835729884
2023-02-28T07:09:31.376Z,1025.73413852
2023-02-28T07:10:31.381Z,1025.937321248
2023-02-28T07:11:31.737Z,1026.0389126119999
2023-02-28T07:12:31.380Z,1025.835729884
2023-02-28T07:13:31.354Z,1025.937321248
2023-02-28T07:14:31.370Z,1025.937321248
2023-02-28T07:15:31.371Z,1025.73413852
2023-02-28T07:16:31.412Z,1025.835729884
2023-02-28T07:17:31.347Z,1025.835729884
2023-02-28T07:18:31.386Z,1025.835729884
2023-02-28T07:19:31.375Z,1025.73413852
2023-02-28T07:20:31.357Z,1025.835729884
2023-02-28T07:21:31.700Z,1025.73413852
2023-02-28T07:22:31.397Z,1026.208231552
2023-02-28T07:23:31.390Z,1025.937321248
2023-02-28T07:24:31.373Z,1026.0389126119999
2023-02-28T07:25:31.328Z,1025.937321248
2023-02-28T07:26:31.335Z,1025.937321248
2023-02-28T07:27:31.355Z,1025.937321248
2023-02-28T07:28:31.373Z,1025.835729884
2023-02-28T07:29:31.350Z,1026.0389126119999
2023-02-28T07:30:31.376Z,1026.140503976
2023-02-28T07:31:31.877Z,1026.0389126119999
2023-02-28T07:32:31.393Z,1025.835729884
2023-02-28T07:33:31.312Z,1025.937321248
2023-02-28T07:34:31.365Z,1026.0389126119999
2023-02-28T07:35:31.430Z,1025.937321248
2023-02-28T07:36:31.355Z,1026.0389126119999
2023-02-28T07:37:31.385Z,1026.140503976
2023-02-28T07:38:31.350Z,1025.937321248
2023-02-28T07:39:31.399Z,1025.937321248
2023-02-28T07:40:31.386Z,1025.937321248
2023-02-28T07:41:31.685Z,1025.937321248
2023-02-28T07:42:31.381Z,1026.0389126119999
2023-02-28T07:43:31.357Z,1026.0389126119999
2023-02-28T07:44:31.390Z,1025.835729884
2023-02-28T07:45:31.351Z,1025.73413852
2023-02-28T07:46:31.497Z,1025.937321248
2023-02-28T07:47:31.364Z,1025.73413852
2023-02-28T07:48:31.388Z,1025.937321248
2023-02-28T07:49:33.153Z,1025.835729884
2023-02-28T07:50:31.358Z,1025.73413852
2023-02-28T07:51:31.553Z,1025.835729884
2023-02-28T07:52:31.373Z,1025.835729884
2023-02-28T07:53:31.360Z,1025.73413852
2023-02-28T07:54:31.371Z,1026.0389126119999
2023-02-28T07:55:31.354Z,1025.6325471559999
2023-02-28T07:56:31.797Z,1025.530955792
2023-02-28T07:57:34.385Z,1025.6325471559999
2023-02-28T07:58:31.386Z,1025.73413852
2023-02-28T07:59:32.401Z,1025.73413852
2023-02-28T08:00:31.391Z,1025.73413852
2023-02-28T08:01:31.724Z,1025.6325471559999
2023-02-28T08:02:31.395Z,1025.6325471559999
2023-02-28T08:03:31.346Z,1025.835729884
2023-02-28T08:04:31.399Z,1025.6325471559999
2023-02-28T08:05:31.347Z,1025.530955792
2023-02-28T08:06:31.382Z,1025.73413852
2023-02-28T08:07:31.353Z,1025.6325471559999
2023-02-28T08:08:31.374Z,1025.835729884
2023-02-28T08:09:31.349Z,1025.73413852
2023-02-28T08:10:31.442Z,1025.6325471559999
2023-02-28T08:11:31.683Z,1025.6325471559999
2023-02-28T08:12:31.332Z,1025.530955792
2023-02-28T08:13:31.350Z,1025.6325471559999
2023-02-28T08:14:31.366Z,1025.4293644279999
2023-02-28T08:15:31.374Z,1025.530955792
2023-02-28T08:16:31.494Z,1025.6325471559999
2023-02-28T08:17:33.238Z,1025.4293644279999
2023-02-28T08:18:31.402Z,1025.530955792
2023-02-28T08:19:31.356Z,1025.4293644279999
2023-02-28T08:20:31.363Z,1025.530955792
2023-02-28T08:21:31.693Z,1025.6325471559999
2023-02-28T08:22:31.616Z,1025.4293644279999
2023-02-28T08:23:31.380Z,1025.6325471559999
2023-02-28T08:24:31.369Z,1025.327773064
2023-02-28T08:25:31.375Z,1025.4293644279999
2023-02-28T08:26:31.364Z,1025.4293644279999
2023-02-28T08:27:31.345Z,1025.4293644279999
2023-02-28T08:28:31.380Z,1025.4293644279999
2023-02-28T08:29:32.218Z,1025.4293644279999
2023-02-28T08:30:31.350Z,1025.327773064
2023-02-28T08:31:31.778Z,1025.6325471559999
2023-02-28T08:32:31.541Z,1025.6325471559999
2023-02-28T08:33:31.328Z,1025.73413852
2023-02-28T08:34:31.386Z,1025.4293644279999
2023-02-28T08:35:31.442Z,1025.4293644279999
2023-02-28T08:36:31.409Z,1025.4293644279999
2023-02-28T08:37:31.376Z,1025.530955792
2023-02-28T08:38:31.360Z,1025.530955792
2023-02-28T08:39:31.350Z,1025.530955792
2023-02-28T08:40:31.363Z,1025.530955792
2023-02-28T08:41:31.581Z,1025.4293644279999
2023-02-28T08:42:31.389Z,1025.4293644279999
2023-02-28T08:43:31.373Z,1025.6325471559999
2023-02-28T08:44:31.368Z,1025.4293644279999
2023-02-28T08:45:31.394Z,1025.4293644279999
2023-02-28T08:46:31.378Z,1025.6325471559999
2023-02-28T08:47:31.346Z,1025.530955792
2023-02-28T08:48:31.360Z,1025.530955792
2023-02-28T08:49:31.339Z,1025.4293644279999
2023-02-28T08:50:31.388Z,1025.4293644279999
2023-02-28T08:51:31.612Z,1025.4293644279999
2023-02-28T08:52:31.333Z,1025.2261816999999
2023-02-28T08:53:31.332Z,1025.2261816999999
2023-02-28T08:54:31.380Z,1025.4293644279999
2023-02-28T08:55:31.373Z,1025.530955792
2023-02-28T08:56:31.369Z,1025.2261816999999
2023-02-28T08:57:31.353Z,1025.4293644279999
2023-02-28T08:58:31.370Z,1025.2261816999999
2023-02-28T08:59:31.481Z,1025.530955792
2023-02-28T09:00:31.454Z,1025.327773064
2023-02-28T09:01:31.803Z,1025.124590336
2023-02-28T09:02:31.428Z,1025.6325471559999
2023-02-28T09:03:31.358Z,1025.2261816999999
2023-02-28T09:04:31.358Z,1025.327773064
2023-02-28T09:05:31.339Z,1025.4293644279999
2023-02-28T09:06:31.774Z,1025.2261816999999
2023-02-28T09:07:31.345Z,1025.124590336
2023-02-28T09:08:31.342Z,1025.2261816999999
2023-02-28T09:09:31.395Z,1025.4293644279999
2023-02-28T09:10:31.353Z,1025.2261816999999
2023-02-28T09:11:31.328Z,1025.4293644279999
2023-02-28T09:12:31.351Z,1025.2261816999999
2023-02-28T09:13:31.400Z,1025.124590336
2023-02-28T09:14:31.369Z,1025.2261816999999
2023-02-28T09:15:31.328Z,1025.124590336
2023-02-28T09:16:31.452Z,1025.2261816999999
2023-02-28T09:17:31.455Z,1025.327773064
2023-02-28T09:18:31.381Z,1025.124590336
2023-02-28T09:19:31.361Z,1025.124590336
2023-02-28T09:20:31.356Z,1025.124590336
2023-02-28T09:21:31.659Z,1025.2261816999999
2023-02-28T09:22:31.394Z,1025.2261816999999
2023-02-28T09:23:31.317Z,1025.327773064
2023-02-28T09:24:32.242Z,1025.2261816999999
2023-02-28T09:25:31.395Z,1025.2261816999999
2023-02-28T09:26:35.378Z,1025.2261816999999
2023-02-28T09:27:31.321Z,1025.2261816999999
2023-02-28T09:28:31.357Z,1025.124590336
2023-02-28T09:29:31.563Z,1024.9214076079998
2023-02-28T09:30:31.483Z,1024.9214076079998
2023-02-28T09:31:31.340Z,1025.2261816999999
2023-02-28T09:32:31.400Z,1025.0229989719999
2023-02-28T09:33:31.406Z,1025.124590336
2023-02-28T09:34:31.466Z,1025.0229989719999
2023-02-28T09:35:31.559Z,1024.819816244